createdAt,value
2016-12-08T00:00:54.780Z,985.19
2016-12-08T00:01:54.776Z,985.18
2016-12-08T00:02:54.772Z,985.18
2016-12-08T00:03:54.768Z,985.16
2016-12-08T00:04:54.764Z,985.15
2016-12-08T00:05:54.759Z,985.16
2016-12-08T00:06:54.757Z,985.15
2016-12-08T00:07:54.752Z,985.16
2016-12-08T00:08:54.748Z,985.13
2016-12-08T00:09:54.743Z,985.12
2016-12-08T00:10:54.740Z,985.13
2016-12-08T00:11:54.736Z,985.08
2016-12-08T00:12:54.732Z,985.09
2016-12-08T00:13:54.728Z,985.04
2016-12-08T00:14:54.724Z,985.08
2016-12-08T00:15:54.720Z,985.02
2016-12-08T00:16:54.716Z,985.03
2016-12-08T00:17:54.708Z,984.97
2016-12-08T00:18:54.707Z,984.99
2016-12-08T00:19:54.704Z,984.98
2016-12-08T00:20:54.699Z,984.96
2016-12-08T00:21:54.692Z,984.95
2016-12-08T00:22:54.688Z,984.97
2016-12-08T00:23:54.684Z,984.93
2016-12-08T00:24:54.680Z,984.95
2016-12-08T00:25:54.676Z,984.99
2016-12-08T00:26:54.672Z,984.94
2016-12-08T00:27:54.668Z,984.93
2016-12-08T00:28:54.664Z,984.91
2016-12-08T00:29:54.660Z,984.89
2016-12-08T00:30:54.656Z,984.85
2016-12-08T00:31:54.652Z,984.89
2016-12-08T00:32:54.648Z,984.89
2016-12-08T00:33:54.644Z,984.89
2016-12-08T00:34:54.640Z,984.85
2016-12-08T00:35:54.636Z,984.88
2016-12-08T00:36:54.632Z,984.88
2016-12-08T00:37:54.628Z,984.84
2016-12-08T00:38:54.624Z,984.9
2016-12-08T00:39:54.620Z,984.83
2016-12-08T00:40:54.616Z,984.85
2016-12-08T00:41:54.612Z,984.86
2016-12-08T00:42:54.608Z,984.83
2016-12-08T00:43:54.604Z,984.84
2016-12-08T00:44:54.600Z,984.85
2016-12-08T00:45:54.597Z,984.86
2016-12-08T00:46:54.590Z,984.86
2016-12-08T00:47:54.585Z,984.87
2016-12-08T00:48:54.585Z,984.84
2016-12-08T00:49:54.581Z,984.87
2016-12-08T00:50:54.573Z,984.85
2016-12-08T00:51:54.569Z,984.87
2016-12-08T00:52:54.565Z,984.9
2016-12-08T00:53:55.977Z,984.87
2016-12-08T00:54:54.557Z,984.9
2016-12-08T00:55:54.553Z,984.88
2016-12-08T00:56:54.549Z,984.91
2016-12-08T00:57:54.545Z,984.94
2016-12-08T00:58:54.541Z,984.87
2016-12-08T00:59:54.537Z,984.87
2016-12-08T01:00:54.534Z,984.88
2016-12-08T01:01:54.530Z,984.83
2016-12-08T01:02:54.526Z,984.82
2016-12-08T01:03:54.522Z,984.86
2016-12-08T01:04:54.518Z,984.8
2016-12-08T01:05:54.514Z,984.8
2016-12-08T01:06:54.510Z,984.81
2016-12-08T01:07:54.506Z,984.82
2016-12-08T01:08:54.502Z,984.81
2016-12-08T01:09:54.499Z,984.77
2016-12-08T01:10:54.494Z,984.78
2016-12-08T01:11:54.490Z,984.78
2016-12-08T01:12:54.487Z,984.8
2016-12-08T01:13:54.482Z,984.81
2016-12-08T01:14:54.479Z,984.85
2016-12-08T01:15:54.475Z,984.82
2016-12-08T01:16:54.471Z,984.83
2016-12-08T01:17:54.467Z,984.82
2016-12-08T01:18:54.463Z,984.79
2016-12-08T01:19:54.455Z,984.83
2016-12-08T01:20:54.451Z,984.84
2016-12-08T01:21:54.447Z,984.82
2016-12-08T01:22:54.443Z,984.81
2016-12-08T01:23:54.440Z,984.83
2016-12-08T01:24:54.435Z,984.82
2016-12-08T01:25:54.432Z,984.83
2016-12-08T01:26:54.427Z,984.83
2016-12-08T01:27:54.424Z,984.82
2016-12-08T01:28:54.419Z,984.83
2016-12-08T01:29:54.417Z,984.82
2016-12-08T01:30:54.412Z,984.82
2016-12-08T01:31:54.408Z,984.78
2016-12-08T01:32:54.404Z,984.79
2016-12-08T01:33:54.400Z,984.78
2016-12-08T01:34:54.396Z,984.78
2016-12-08T01:35:54.392Z,984.76
2016-12-08T01:36:54.388Z,984.73
2016-12-08T01:37:54.384Z,984.75
2016-12-08T01:38:54.380Z,984.78
2016-12-08T01:39:54.377Z,984.73
2016-12-08T01:40:54.373Z,984.74
2016-12-08T01:41:54.365Z,984.75
2016-12-08T01:42:54.360Z,984.75
2016-12-08T01:43:54.356Z,984.75
2016-12-08T01:44:54.353Z,984.81
2016-12-08T01:45:54.348Z,984.8
2016-12-08T01:46:54.345Z,984.85
2016-12-08T01:47:54.340Z,984.82
2016-12-08T01:48:54.337Z,984.81
2016-12-08T01:49:54.333Z,984.81
2016-12-08T01:50:54.329Z,984.78
2016-12-08T01:51:54.325Z,984.78
2016-12-08T01:52:54.321Z,984.76
2016-12-08T01:53:54.316Z,984.76
2016-12-08T01:54:54.312Z,984.74
2016-12-08T01:55:54.308Z,984.74
2016-12-08T01:56:54.304Z,984.71
2016-12-08T01:57:54.302Z,984.74
2016-12-08T01:58:54.296Z,984.77
2016-12-08T01:59:54.292Z,984.74
2016-12-08T02:00:54.287Z,984.71
2016-12-08T02:01:54.284Z,984.67
2016-12-08T02:02:54.280Z,984.67
2016-12-08T02:03:54.271Z,984.67
2016-12-08T02:04:54.267Z,984.66
2016-12-08T02:05:54.264Z,984.61
2016-12-08T02:06:54.259Z,984.6
2016-12-08T02:07:54.255Z,984.6
2016-12-08T02:08:54.251Z,984.59
2016-12-08T02:09:54.247Z,984.58
2016-12-08T02:10:54.243Z,984.62
2016-12-08T02:11:54.240Z,984.62
2016-12-08T02:12:54.234Z,984.63
2016-12-08T02:13:54.230Z,984.63
2016-12-08T02:14:54.226Z,984.65
2016-12-08T02:15:54.222Z,984.66
2016-12-08T02:16:54.218Z,984.67
2016-12-08T02:17:54.214Z,984.67
2016-12-08T02:18:54.210Z,984.68
2016-12-08T02:19:54.207Z,984.67
2016-12-08T02:20:54.202Z,984.68
2016-12-08T02:21:54.194Z,984.68
2016-12-08T02:22:54.194Z,984.62
2016-12-08T02:23:54.189Z,984.66
2016-12-08T02:24:54.186Z,984.67
2016-12-08T02:25:54.178Z,984.7
2016-12-08T02:26:54.175Z,984.73
2016-12-08T02:27:54.170Z,984.74
2016-12-08T02:28:54.166Z,984.74
2016-12-08T02:29:54.162Z,984.81
2016-12-08T02:30:54.158Z,984.78
2016-12-08T02:31:54.154Z,984.82
2016-12-08T02:32:54.151Z,984.8
2016-12-08T02:33:54.146Z,984.74
2016-12-08T02:34:54.144Z,984.78
2016-12-08T02:35:54.139Z,984.77
2016-12-08T02:36:54.134Z,984.77
2016-12-08T02:37:54.130Z,984.75
2016-12-08T02:38:54.127Z,984.79
2016-12-08T02:39:54.123Z,984.75
2016-12-08T02:40:54.119Z,984.78
2016-12-08T02:41:54.115Z,984.75
2016-12-08T02:42:54.111Z,984.76
2016-12-08T02:43:54.107Z,984.75
2016-12-08T02:44:54.103Z,984.71
2016-12-08T02:45:54.099Z,984.75
2016-12-08T02:46:54.095Z,984.71
2016-12-08T02:47:54.087Z,984.71
2016-12-08T02:48:54.087Z,984.72
2016-12-08T02:49:54.079Z,984.72
2016-12-08T02:50:54.075Z,984.71
2016-12-08T02:51:54.071Z,984.71
2016-12-08T02:52:54.067Z,984.71
2016-12-08T02:53:54.063Z,984.71
2016-12-08T02:54:54.060Z,984.72
2016-12-08T02:55:54.055Z,984.76
2016-12-08T02:56:54.051Z,984.75
2016-12-08T02:57:54.047Z,984.74
2016-12-08T02:58:54.044Z,984.76
2016-12-08T02:59:54.041Z,984.74
2016-12-08T03:00:54.035Z,984.77
2016-12-08T03:01:54.032Z,984.76
2016-12-08T03:02:54.028Z,984.72
2016-12-08T03:03:54.023Z,984.74
2016-12-08T03:04:54.019Z,984.71
2016-12-08T03:05:54.012Z,984.71
2016-12-08T03:06:54.008Z,984.71
2016-12-08T03:07:54.004Z,984.72
2016-12-08T03:08:54.000Z,984.7
2016-12-08T03:09:53.996Z,984.7
2016-12-08T03:10:53.992Z,984.69
2016-12-08T03:11:53.988Z,984.67
2016-12-08T03:12:53.984Z,984.7
2016-12-08T03:13:53.980Z,984.69
2016-12-08T03:14:53.976Z,984.71
2016-12-08T03:15:53.972Z,984.69
2016-12-08T03:16:53.968Z,984.69
2016-12-08T03:17:53.964Z,984.72
2016-12-08T03:18:53.960Z,984.68
2016-12-08T03:19:53.956Z,984.69
2016-12-08T03:20:53.948Z,984.72
2016-12-08T03:21:53.944Z,984.71
2016-12-08T03:22:53.941Z,984.7
2016-12-08T03:23:53.936Z,984.69
2016-12-08T03:24:53.932Z,984.72
2016-12-08T03:25:53.929Z,984.72
2016-12-08T03:26:53.924Z,984.75
2016-12-08T03:27:53.920Z,984.79
2016-12-08T03:28:53.917Z,984.77
2016-12-08T03:29:53.912Z,984.78
2016-12-08T03:30:53.909Z,984.77
2016-12-08T03:31:53.905Z,984.78
2016-12-08T03:32:53.900Z,984.78
2016-12-08T03:33:53.897Z,984.78
2016-12-08T03:34:53.889Z,984.78
2016-12-08T03:35:53.884Z,984.8
2016-12-08T03:36:53.880Z,984.79
2016-12-08T03:37:53.876Z,984.83
2016-12-08T03:38:53.872Z,984.83
2016-12-08T03:39:53.868Z,984.86
2016-12-08T03:40:53.864Z,984.86
2016-12-08T03:41:53.860Z,984.88
2016-12-08T03:42:53.856Z,984.88
2016-12-08T03:43:53.851Z,984.85
2016-12-08T03:44:53.847Z,984.89
2016-12-08T03:45:53.843Z,984.91
2016-12-08T03:46:53.839Z,984.95
2016-12-08T03:47:53.834Z,984.96
2016-12-08T03:48:53.831Z,984.91
2016-12-08T03:49:53.823Z,984.95
2016-12-08T03:50:53.819Z,984.98
2016-12-08T03:51:53.815Z,985.02
2016-12-08T03:52:53.810Z,984.98
2016-12-08T03:53:53.806Z,984.95
2016-12-08T03:54:53.802Z,984.99
2016-12-08T03:55:53.798Z,984.99
2016-12-08T03:56:53.794Z,985
2016-12-08T03:57:53.791Z,984.98
2016-12-08T03:58:53.787Z,984.99
2016-12-08T03:59:53.783Z,985
2016-12-08T04:00:53.779Z,984.95
2016-12-08T04:01:53.771Z,984.97
2016-12-08T04:02:53.772Z,985.01
2016-12-08T04:03:53.762Z,985
2016-12-08T04:04:53.759Z,984.97
2016-12-08T04:05:53.755Z,984.98
2016-12-08T04:06:53.751Z,984.94
2016-12-08T04:07:53.747Z,984.96
2016-12-08T04:08:53.743Z,984.96
2016-12-08T04:09:53.740Z,984.96
2016-12-08T04:10:53.738Z,984.97
2016-12-08T04:11:53.731Z,984.93
2016-12-08T04:12:53.727Z,984.92
2016-12-08T04:13:53.724Z,984.96
2016-12-08T04:14:53.720Z,984.89
2016-12-08T04:15:53.716Z,984.91
2016-12-08T04:16:53.711Z,984.91
2016-12-08T04:17:53.708Z,984.87
2016-12-08T04:18:53.700Z,984.9
2016-12-08T04:19:53.695Z,984.88
2016-12-08T04:20:53.692Z,984.89
2016-12-08T04:21:53.688Z,984.87
2016-12-08T04:22:53.684Z,984.91
2016-12-08T04:23:53.680Z,984.94
2016-12-08T04:24:53.676Z,984.96
2016-12-08T04:25:53.672Z,984.93
2016-12-08T04:26:53.668Z,984.91
2016-12-08T04:27:53.664Z,984.91
2016-12-08T04:28:53.660Z,984.89
2016-12-08T04:29:53.653Z,984.88
2016-12-08T04:30:53.648Z,984.86
2016-12-08T04:31:53.644Z,984.84
2016-12-08T04:32:53.640Z,984.83
2016-12-08T04:33:53.637Z,984.86
2016-12-08T04:34:53.633Z,984.83
2016-12-08T04:35:53.628Z,984.87
2016-12-08T04:36:53.625Z,984.89
2016-12-08T04:37:53.620Z,984.86
2016-12-08T04:38:53.617Z,984.86
2016-12-08T04:39:53.612Z,984.81
2016-12-08T04:40:53.609Z,984.88
2016-12-08T04:41:53.605Z,984.85
2016-12-08T04:42:53.600Z,984.81
2016-12-08T04:43:53.596Z,984.84
2016-12-08T04:44:53.589Z,984.87
2016-12-08T04:45:53.585Z,984.91
2016-12-08T04:46:53.584Z,984.89
2016-12-08T04:47:53.577Z,984.9
2016-12-08T04:48:53.573Z,984.87
2016-12-08T04:49:53.569Z,984.88
2016-12-08T04:50:53.565Z,984.89
2016-12-08T04:51:53.561Z,984.86
2016-12-08T04:52:53.557Z,984.87
2016-12-08T04:53:53.556Z,984.9
2016-12-08T04:54:53.559Z,984.88
2016-12-08T04:55:53.541Z,984.85
2016-12-08T04:56:53.538Z,984.87
2016-12-08T04:57:53.534Z,984.88
2016-12-08T04:58:53.530Z,984.84
2016-12-08T04:59:53.526Z,984.85
2016-12-08T05:00:53.522Z,984.86
2016-12-08T05:01:53.519Z,984.86
2016-12-08T05:02:53.814Z,984.85
2016-12-08T05:03:53.511Z,984.83
2016-12-08T05:04:53.507Z,984.86
2016-12-08T05:05:53.503Z,984.86
2016-12-08T05:06:53.499Z,984.87
2016-12-08T05:07:53.495Z,984.84
2016-12-08T05:08:53.492Z,984.8
2016-12-08T05:09:53.483Z,984.83
2016-12-08T05:10:53.478Z,984.77
2016-12-08T05:11:53.475Z,984.76
2016-12-08T05:12:53.472Z,984.8
2016-12-08T05:13:53.468Z,984.77
2016-12-08T05:14:53.463Z,984.77
2016-12-08T05:15:53.459Z,984.79
2016-12-08T05:16:53.456Z,984.78
2016-12-08T05:17:53.451Z,984.82
2016-12-08T05:18:53.447Z,984.78
2016-12-08T05:19:53.444Z,984.79
2016-12-08T05:20:53.440Z,984.79
2016-12-08T05:21:53.436Z,984.76
2016-12-08T05:22:53.433Z,984.82
2016-12-08T05:23:53.428Z,984.82
2016-12-08T05:24:53.420Z,984.82
2016-12-08T05:25:53.417Z,984.82
2016-12-08T05:26:53.413Z,984.81
2016-12-08T05:27:53.409Z,984.77
2016-12-08T05:28:53.404Z,984.8
2016-12-08T05:29:53.403Z,984.79
2016-12-08T05:30:53.397Z,984.78
2016-12-08T05:31:53.393Z,984.78
2016-12-08T05:32:53.390Z,984.81
2016-12-08T05:33:53.386Z,984.83
2016-12-08T05:34:53.382Z,984.84
2016-12-08T05:35:53.374Z,984.89
2016-12-08T05:36:53.370Z,984.87
2016-12-08T05:37:53.370Z,984.91
2016-12-08T05:38:53.369Z,984.94
2016-12-08T05:39:53.369Z,984.93
2016-12-08T05:40:53.361Z,984.9
2016-12-08T05:41:53.359Z,984.94
2016-12-08T05:42:53.553Z,984.89
2016-12-08T05:43:53.350Z,984.89
2016-12-08T05:44:53.345Z,984.91
2016-12-08T05:45:53.342Z,984.94
2016-12-08T05:46:53.338Z,984.88
2016-12-08T05:47:53.337Z,984.91
2016-12-08T05:48:53.330Z,984.92
2016-12-08T05:49:53.326Z,984.92
2016-12-08T05:50:53.322Z,984.91
2016-12-08T05:51:53.315Z,984.93
2016-12-08T05:52:53.311Z,984.92
2016-12-08T05:53:53.303Z,984.93
2016-12-08T05:54:53.299Z,984.91
2016-12-08T05:55:53.295Z,984.94
2016-12-08T05:56:53.291Z,984.9
2016-12-08T05:57:53.287Z,984.91
2016-12-08T05:58:53.283Z,984.89
2016-12-08T05:59:53.279Z,984.91
2016-12-08T06:00:53.276Z,984.94
2016-12-08T06:01:53.271Z,984.93
2016-12-08T06:02:53.268Z,984.96
2016-12-08T06:03:53.264Z,984.95
2016-12-08T06:04:53.262Z,984.94
2016-12-08T06:05:53.260Z,984.91
2016-12-08T06:06:53.256Z,984.91
2016-12-08T06:07:53.248Z,984.86
2016-12-08T06:08:53.244Z,984.93
2016-12-08T06:09:53.236Z,984.9
2016-12-08T06:10:53.237Z,984.93
2016-12-08T06:11:53.233Z,984.89
2016-12-08T06:12:53.229Z,984.92
2016-12-08T06:13:53.225Z,984.93
2016-12-08T06:14:53.221Z,984.94
2016-12-08T06:15:53.216Z,984.86
2016-12-08T06:16:53.213Z,984.89
2016-12-08T06:17:53.209Z,984.88
2016-12-08T06:18:53.205Z,984.85
2016-12-08T06:19:53.201Z,984.87
2016-12-08T06:20:53.197Z,984.85
2016-12-08T06:21:53.193Z,984.83
2016-12-08T06:22:53.185Z,984.8
2016-12-08T06:23:53.181Z,984.78
2016-12-08T06:24:53.178Z,984.85
2016-12-08T06:25:53.173Z,984.84
2016-12-08T06:26:53.169Z,984.82
2016-12-08T06:27:53.165Z,984.83
2016-12-08T06:28:53.162Z,984.8
2016-12-08T06:29:53.158Z,984.86
2016-12-08T06:30:53.154Z,984.8
2016-12-08T06:31:53.150Z,984.81
2016-12-08T06:32:53.146Z,984.82
2016-12-08T06:33:53.142Z,984.82
2016-12-08T06:34:53.138Z,984.85
2016-12-08T06:35:53.134Z,984.84
2016-12-08T06:36:53.130Z,984.84
2016-12-08T06:37:53.122Z,984.87
2016-12-08T06:38:53.118Z,984.91
2016-12-08T06:39:53.115Z,984.93
2016-12-08T06:40:53.110Z,984.91
2016-12-08T06:41:53.107Z,984.95
2016-12-08T06:42:53.102Z,984.92
2016-12-08T06:43:53.099Z,984.94
2016-12-08T06:44:53.095Z,984.96
2016-12-08T06:45:53.093Z,984.97
2016-12-08T06:46:53.087Z,985
2016-12-08T06:47:53.083Z,985.01
2016-12-08T06:48:53.079Z,985
2016-12-08T06:49:53.076Z,985.02
2016-12-08T06:50:53.067Z,985.04
2016-12-08T06:51:53.063Z,985.05
2016-12-08T06:52:53.059Z,985.04
2016-12-08T06:53:53.055Z,985.04
2016-12-08T06:54:53.051Z,985.05
2016-12-08T06:55:53.044Z,985.09
2016-12-08T06:56:53.039Z,985.05
2016-12-08T06:57:53.035Z,985.01
2016-12-08T06:58:53.032Z,985.05
2016-12-08T06:59:53.027Z,984.99
2016-12-08T07:00:53.023Z,984.99
2016-12-08T07:01:53.023Z,984.99
2016-12-08T07:02:53.019Z,984.95
2016-12-08T07:03:53.011Z,984.93
2016-12-08T07:04:53.008Z,984.93
2016-12-08T07:05:53.003Z,984.93
2016-12-08T07:06:52.999Z,984.93
2016-12-08T07:07:52.995Z,984.94
2016-12-08T07:08:52.991Z,984.91
2016-12-08T07:09:52.983Z,984.93
2016-12-08T07:10:52.980Z,984.9
2016-12-08T07:11:52.975Z,984.87
2016-12-08T07:12:52.971Z,984.88
2016-12-08T07:13:52.967Z,984.92
2016-12-08T07:14:52.967Z,984.89
2016-12-08T07:15:52.959Z,984.92
2016-12-08T07:16:52.959Z,984.97
2016-12-08T07:17:52.951Z,984.93
2016-12-08T07:18:52.947Z,984.97
2016-12-08T07:19:52.943Z,984.98
2016-12-08T07:20:52.935Z,984.97
2016-12-08T07:21:52.937Z,984.96
2016-12-08T07:22:52.931Z,984.99
2016-12-08T07:23:52.923Z,984.99
2016-12-08T07:24:52.919Z,985
2016-12-08T07:25:52.915Z,984.99
2016-12-08T07:26:52.915Z,985.01
2016-12-08T07:27:52.910Z,984.98
2016-12-08T07:28:52.902Z,984.99
2016-12-08T07:29:52.899Z,984.97
2016-12-08T07:30:52.894Z,984.99
2016-12-08T07:31:52.890Z,985.03
2016-12-08T07:32:52.887Z,985.02
2016-12-08T07:33:52.882Z,985.03
2016-12-08T07:34:52.879Z,985.03
2016-12-08T07:35:52.871Z,985.02
2016-12-08T07:36:52.868Z,985.03
2016-12-08T07:37:52.863Z,984.98
2016-12-08T07:38:52.859Z,984.97
2016-12-08T07:39:52.851Z,984.97
2016-12-08T07:40:52.851Z,984.96
2016-12-08T07:41:52.847Z,984.94
2016-12-08T07:42:52.843Z,984.93
2016-12-08T07:43:52.839Z,984.97
2016-12-08T07:44:52.835Z,985.01
2016-12-08T07:45:52.831Z,985
2016-12-08T07:46:52.827Z,985.03
2016-12-08T07:47:52.823Z,985.03
2016-12-08T07:48:52.819Z,985.1
2016-12-08T07:49:52.815Z,985.14
2016-12-08T07:50:52.811Z,985.12
2016-12-08T07:51:52.807Z,985.12
2016-12-08T07:52:52.799Z,985.13
2016-12-08T07:53:52.795Z,985.15
2016-12-08T07:54:52.792Z,985.14
2016-12-08T07:55:52.787Z,985.13
2016-12-08T07:56:52.783Z,985.19
2016-12-08T07:57:52.779Z,985.17
2016-12-08T07:58:52.775Z,985.19
2016-12-08T07:59:52.771Z,985.17
2016-12-08T08:00:52.767Z,985.17
2016-12-08T08:01:52.763Z,985.13
2016-12-08T08:02:52.759Z,985.11
2016-12-08T08:03:52.755Z,985.14
2016-12-08T08:04:52.751Z,985.12
2016-12-08T08:05:52.743Z,985.16
2016-12-08T08:06:52.740Z,985.15
2016-12-08T08:07:52.736Z,985.14
2016-12-08T08:08:52.732Z,985.16
2016-12-08T08:09:52.728Z,985.18
2016-12-08T08:10:52.724Z,985.16
2016-12-08T08:11:52.720Z,985.13
2016-12-08T08:12:52.716Z,985.15
2016-12-08T08:13:52.712Z,985.16
2016-12-08T08:14:52.708Z,985.21
2016-12-08T08:15:52.704Z,985.18
2016-12-08T08:16:52.703Z,985.2
2016-12-08T08:17:52.692Z,985.22
2016-12-08T08:18:52.688Z,985.23
2016-12-08T08:19:52.688Z,985.23
2016-12-08T08:20:52.680Z,985.21
2016-12-08T08:21:52.677Z,985.21
2016-12-08T08:22:52.676Z,985.24
2016-12-08T08:23:52.665Z,985.23
2016-12-08T08:24:52.664Z,985.22
2016-12-08T08:25:52.660Z,985.24
2016-12-08T08:26:52.661Z,985.31
2016-12-08T08:27:52.652Z,985.27
2016-12-08T08:28:52.649Z,985.3
2016-12-08T08:29:52.644Z,985.32
2016-12-08T08:30:52.640Z,985.31
2016-12-08T08:31:52.633Z,985.32
2016-12-08T08:32:52.629Z,985.35
2016-12-08T08:33:52.628Z,985.34
2016-12-08T08:34:52.624Z,985.43
2016-12-08T08:35:52.621Z,985.41
2016-12-08T08:36:52.617Z,985.37
2016-12-08T08:37:52.613Z,985.43
2016-12-08T08:38:52.605Z,985.45
2016-12-08T08:39:52.601Z,985.44
2016-12-08T08:40:52.603Z,985.44
2016-12-08T08:41:52.597Z,985.47
2016-12-08T08:42:52.593Z,985.48
2016-12-08T08:43:52.585Z,985.52
2016-12-08T08:44:52.581Z,985.5
2016-12-08T08:45:52.581Z,985.52
2016-12-08T08:46:52.577Z,985.53
2016-12-08T08:47:52.572Z,985.51
2016-12-08T08:48:52.569Z,985.52
2016-12-08T08:49:52.561Z,985.56
2016-12-08T08:50:52.561Z,985.59
2016-12-08T08:51:52.556Z,985.56
2016-12-08T08:52:52.553Z,985.58
2016-12-08T08:53:52.545Z,985.59
2016-12-08T08:54:52.544Z,985.56
2016-12-08T08:55:52.540Z,985.58
2016-12-08T08:56:52.537Z,985.57
2016-12-08T08:57:52.529Z,985.63
2016-12-08T08:58:52.529Z,985.6
2016-12-08T08:59:52.531Z,985.61
2016-12-08T09:00:52.519Z,985.59
2016-12-08T09:01:52.513Z,985.6
2016-12-08T09:02:52.513Z,985.57
2016-12-08T09:03:52.509Z,985.59
2016-12-08T09:04:52.501Z,985.58
2016-12-08T09:05:52.501Z,985.58
2016-12-08T09:06:52.498Z,985.52
2016-12-08T09:07:52.493Z,985.54
2016-12-08T09:08:52.489Z,985.56
2016-12-08T09:09:52.485Z,985.57
2016-12-08T09:10:52.477Z,985.58
2016-12-08T09:11:52.477Z,985.54
2016-12-08T09:12:52.474Z,985.55
2016-12-08T09:13:52.618Z,985.55
2016-12-08T09:14:52.466Z,985.51
2016-12-08T09:15:52.461Z,985.52
2016-12-08T09:16:52.454Z,985.52
2016-12-08T09:17:52.450Z,985.49
2016-12-08T09:18:52.450Z,985.51
2016-12-08T09:19:52.456Z,985.5
2016-12-08T09:20:52.442Z,985.49
2016-12-08T09:21:52.444Z,985.47
2016-12-08T09:22:52.434Z,985.47
2016-12-08T09:23:52.430Z,985.45
2016-12-08T09:24:52.426Z,985.44
2016-12-08T09:25:52.419Z,985.42
2016-12-08T09:26:52.418Z,985.41
2016-12-08T09:27:52.411Z,985.4
2016-12-08T09:28:52.410Z,985.41
2016-12-08T09:29:52.406Z,985.43
2016-12-08T09:30:52.402Z,985.41
2016-12-08T09:31:52.403Z,985.41
2016-12-08T09:32:52.391Z,985.37
2016-12-08T09:33:52.395Z,985.38
2016-12-08T09:34:52.386Z,985.42
2016-12-08T09:35:52.386Z,985.37
2016-12-08T09:36:52.379Z,985.36
2016-12-08T09:37:52.379Z,985.35
2016-12-08T09:38:52.375Z,985.37
2016-12-08T09:39:52.371Z,985.39
2016-12-08T09:40:52.367Z,985.32
2016-12-08T09:41:52.362Z,985.32
2016-12-08T09:42:52.355Z,985.31
2016-12-08T09:43:52.355Z,985.32
2016-12-08T09:44:52.351Z,985.32
2016-12-08T09:45:52.347Z,985.31
2016-12-08T09:46:52.340Z,985.29
2016-12-08T09:47:52.339Z,985.29
2016-12-08T09:48:52.332Z,985.26
2016-12-08T09:49:52.335Z,985.26
2016-12-08T09:50:52.331Z,985.2
2016-12-08T09:51:52.323Z,985.2
2016-12-08T09:52:52.323Z,985.18
2016-12-08T09:53:52.619Z,985.22
2016-12-08T09:54:52.312Z,985.22
2016-12-08T09:55:52.312Z,985.23
2016-12-08T09:56:52.308Z,985.25
2016-12-08T09:57:52.304Z,985.18
2016-12-08T09:58:52.300Z,985.22
2016-12-08T09:59:52.295Z,985.18
2016-12-08T10:00:52.292Z,985.18
2016-12-08T10:01:52.292Z,985.16
2016-12-08T10:02:52.288Z,985.14
2016-12-08T10:03:52.280Z,985.16
2016-12-08T10:04:52.280Z,985.15
2016-12-08T10:05:52.276Z,985.06
2016-12-08T10:06:52.272Z,985
2016-12-08T10:07:52.265Z,985.02
2016-12-08T10:08:52.265Z,985.02
2016-12-08T10:09:52.263Z,985
2016-12-08T10:10:52.260Z,984.97
2016-12-08T10:11:52.256Z,984.95
2016-12-08T10:12:52.249Z,984.97
2016-12-08T10:13:52.249Z,984.88
2016-12-08T10:14:52.245Z,984.86
2016-12-08T10:15:52.244Z,984.87
2016-12-08T10:16:52.241Z,984.84
2016-12-08T10:17:52.237Z,984.84
2016-12-08T10:18:52.230Z,984.82
2016-12-08T10:19:52.228Z,984.78
2016-12-08T10:20:52.225Z,984.75
2016-12-08T10:21:52.222Z,984.72
2016-12-08T10:22:52.217Z,984.72
2016-12-08T10:23:52.217Z,984.71
2016-12-08T10:24:52.210Z,984.69
2016-12-08T10:25:52.207Z,984.74
2016-12-08T10:26:52.202Z,984.71
2016-12-08T10:27:52.202Z,984.72
2016-12-08T10:28:52.202Z,984.7
2016-12-08T10:29:52.198Z,984.68
2016-12-08T10:30:52.194Z,984.67
2016-12-08T10:31:52.190Z,984.68
2016-12-08T10:32:52.186Z,984.66
2016-12-08T10:33:52.179Z,984.67
2016-12-08T10:34:52.174Z,984.62
2016-12-08T10:35:52.174Z,984.68
2016-12-08T10:36:52.170Z,984.58
2016-12-08T10:37:52.171Z,984.61
2016-12-08T10:38:52.166Z,984.56
2016-12-08T10:39:52.158Z,984.58
2016-12-08T10:40:52.158Z,984.54
2016-12-08T10:41:52.159Z,984.52
2016-12-08T10:42:52.155Z,984.48
2016-12-08T10:43:52.151Z,984.46
2016-12-08T10:44:52.147Z,984.47
2016-12-08T10:45:52.143Z,984.49
2016-12-08T10:46:52.143Z,984.49
2016-12-08T10:47:52.139Z,984.42
2016-12-08T10:48:52.135Z,984.4
2016-12-08T10:49:52.131Z,984.4
2016-12-08T10:50:52.127Z,984.4
2016-12-08T10:51:52.127Z,984.36
2016-12-08T10:52:52.125Z,984.38
2016-12-08T10:53:52.120Z,984.4
2016-12-08T10:54:52.115Z,984.41
2016-12-08T10:55:52.107Z,984.4
2016-12-08T10:56:52.108Z,984.41
2016-12-08T10:57:52.103Z,984.38
2016-12-08T10:58:52.099Z,984.35
2016-12-08T10:59:52.099Z,984.39
2016-12-08T11:00:52.096Z,984.38
2016-12-08T11:01:52.092Z,984.37
2016-12-08T11:02:52.092Z,984.37
2016-12-08T11:03:52.089Z,984.4
2016-12-08T11:04:52.084Z,984.4
2016-12-08T11:05:52.076Z,984.37
2016-12-08T11:06:52.076Z,984.32
2016-12-08T11:07:52.076Z,984.36
2016-12-08T11:08:52.072Z,984.35
2016-12-08T11:09:52.068Z,984.34
2016-12-08T11:10:52.068Z,984.34
2016-12-08T11:11:52.060Z,984.32
2016-12-08T11:12:52.056Z,984.29
2016-12-08T11:13:52.056Z,984.25
2016-12-08T11:14:52.056Z,984.3
2016-12-08T11:15:52.053Z,984.32
2016-12-08T11:16:52.048Z,984.33
2016-12-08T11:17:52.044Z,984.36
2016-12-08T11:18:52.040Z,984.37
2016-12-08T11:19:52.040Z,984.35
2016-12-08T11:20:52.033Z,984.33
2016-12-08T11:21:52.032Z,984.35
2016-12-08T11:22:52.029Z,984.33
2016-12-08T11:23:52.024Z,984.28
2016-12-08T11:24:52.020Z,984.28
2016-12-08T11:25:52.020Z,984.32
2016-12-08T11:26:52.017Z,984.22
2016-12-08T11:27:52.013Z,984.24
2016-12-08T11:28:52.013Z,984.22
2016-12-08T11:29:52.010Z,984.22
2016-12-08T11:30:52.004Z,984.18
2016-12-08T11:31:52.001Z,984.16
2016-12-08T11:32:52.000Z,984.2
2016-12-08T11:33:51.996Z,984.14
2016-12-08T11:34:51.988Z,984.15
2016-12-08T11:35:51.995Z,984.11
2016-12-08T11:36:51.989Z,984.14
2016-12-08T11:37:51.985Z,984.11
2016-12-08T11:38:51.980Z,984.07
2016-12-08T11:39:51.980Z,984.08
2016-12-08T11:40:51.973Z,984.09
2016-12-08T11:41:51.972Z,984.1
2016-12-08T11:42:51.969Z,984.08
2016-12-08T11:43:51.969Z,984.04
2016-12-08T11:44:51.965Z,984.07
2016-12-08T11:45:51.961Z,984.04
2016-12-08T11:46:51.957Z,984.05
2016-12-08T11:47:51.956Z,984.05
2016-12-08T11:48:51.953Z,984.02
2016-12-08T11:49:51.949Z,984
2016-12-08T11:50:51.949Z,984.01
2016-12-08T11:51:51.947Z,984.02
2016-12-08T11:52:51.937Z,984
2016-12-08T11:53:51.933Z,983.97
2016-12-08T11:54:51.943Z,983.98
2016-12-08T11:55:51.933Z,983.95
2016-12-08T11:56:51.925Z,983.93
2016-12-08T11:57:51.924Z,983.92
2016-12-08T11:58:51.925Z,983.93
2016-12-08T11:59:51.917Z,983.91
2016-12-08T12:00:51.913Z,983.91
2016-12-08T12:01:51.916Z,983.89
2016-12-08T12:02:51.912Z,983.88
2016-12-08T12:03:51.905Z,983.86
2016-12-08T12:04:51.905Z,983.83
2016-12-08T12:05:51.905Z,983.8
2016-12-08T12:06:51.901Z,983.78
2016-12-08T12:07:51.897Z,983.77
2016-12-08T12:08:51.889Z,983.79
2016-12-08T12:09:51.888Z,983.76
2016-12-08T12:10:51.889Z,983.75
2016-12-08T12:11:51.881Z,983.73
2016-12-08T12:12:51.876Z,983.75
2016-12-08T12:13:51.873Z,983.7
2016-12-08T12:14:51.876Z,983.72
2016-12-08T12:15:51.873Z,983.7
2016-12-08T12:16:51.869Z,983.7
2016-12-08T12:17:51.864Z,983.68
2016-12-08T12:18:51.861Z,983.69
2016-12-08T12:19:51.860Z,983.65
2016-12-08T12:20:51.857Z,983.63
2016-12-08T12:21:51.852Z,983.6
2016-12-08T12:22:51.852Z,983.63
2016-12-08T12:23:51.849Z,983.6
2016-12-08T12:24:51.844Z,983.59
2016-12-08T12:25:51.836Z,983.62
2016-12-08T12:26:51.832Z,983.57
2016-12-08T12:27:51.836Z,983.58
2016-12-08T12:28:51.832Z,983.6
2016-12-08T12:29:51.828Z,983.57
2016-12-08T12:30:51.824Z,983.57
2016-12-08T12:31:51.820Z,983.56